Henryville, Pennsylvania
Current Conditions -  °F | °C
As of 8:53 PM on Sunday 23 Nov 2014 (Local Time) from KMPO Reporting Station
Clear Clear  
Wind Chill: 38°   Ceiling: Unl
Heat Index: 43°   Visibility: 10mi
Dew Point: 30°   Wind: 8mph
Humidity: 60%   Direction: 170°S
Pressure: 30.01"   Gusts: NA
Location:  41.09°N, 75.24°W
Report Text: KMPO 240153Z AUTO 17007KT 10SM CLR 06/M01 A3001 RMK AO2 SLP173 T00611011
Loading
Personal Weather Stations






























Interactive Weather Map New forecast layout! Learn more

10-Day Weather Forecast

Advertisements
Track Severe Weather on mobile